Time;durP1;ratioP1;P1;durP2;ratioP2;P2;SDS_P1;SDS_P2;PMS_P1;PMS_P2;Temp;Humidity;BMP_temperature;BMP_pressure;BME280_temperature;BME280_humidity;BME280_pressure;Samples;Min_cycle;Max_cycle;Signal;HPM_P1;HPM_P2
2024/02/14 00:02:09;;;;;;;230.23;63.60;;;;;;;;;;4990610;28;20438;-44
2024/02/14 00:04:35;;;;;;;232.23;65.53;;;;;;;;;;4990489;28;20180;-44
2024/02/14 00:07:01;;;;;;;231.00;63.73;;;;;;;;;;4990452;28;20455;-45
2024/02/14 00:09:27;;;;;;;232.02;65.18;;;;;;;;;;4990138;28;20768;-43
2024/02/14 00:11:53;;;;;;;233.17;66.30;;;;;;;;;;4991553;28;20180;-44
2024/02/14 00:14:20;;;;;;;232.03;64.80;;;;;;;;;;4994351;28;20407;-44
2024/02/14 00:16:46;;;;;;;235.18;66.57;;;;;;;;;;4993715;28;20790;-44
2024/02/14 00:19:12;;;;;;;230.65;63.60;;;;;;;;;;4993759;28;20579;-44
2024/02/14 00:21:39;;;;;;;232.15;65.05;;;;;;;;;;4993366;28;20595;-44
2024/02/14 00:24:05;;;;;;;232.05;65.40;;;;;;;;;;4992974;28;20172;-44
2024/02/14 00:26:31;;;;;;;232.07;66.40;;;;;;;;;;4993506;28;20252;-44
2024/02/14 00:28:57;;;;;;;231.43;65.38;;;;;;;;;;4993746;28;20235;-44
2024/02/14 00:31:23;;;;;;;231.38;66.47;;;;;;;;;;4993060;28;20180;-44
2024/02/14 00:33:50;;;;;;;236.20;69.43;;;;;;;;;;4993622;28;20675;-43
2024/02/14 00:36:17;;;;;;;230.90;65.10;;;;;;;;;;4993286;28;20405;-44
2024/02/14 00:38:43;;;;;;;229.48;63.75;;;;;;;;;;4993619;28;20192;-44
2024/02/14 00:41:11;;;;;;;229.37;65.83;;;;;;;;;;4993960;28;20189;-44
2024/02/14 00:43:37;;;;;;;228.40;63.13;;;;;;;;;;4993837;28;20491;-44
2024/02/14 00:46:03;;;;;;;231.03;65.40;;;;;;;;;;4993403;28;20291;-44
2024/02/14 00:48:29;;;;;;;230.32;65.28;;;;;;;;;;4993545;28;20898;-43
2024/02/14 00:50:55;;;;;;;231.80;66.65;;;;;;;;;;4993500;28;20259;-44
2024/02/14 00:53:21;;;;;;;232.23;65.27;;;;;;;;;;4993860;28;20191;-44
2024/02/14 00:55:47;;;;;;;229.13;64.00;;;;;;;;;;4993488;28;20447;-44
2024/02/14 00:58:13;;;;;;;232.93;64.95;;;;;;;;;;4993500;28;20412;-44
2024/02/14 01:00:39;;;;;;;225.97;60.60;;;;;;;;;;4993493;28;20589;-44
2024/02/14 01:03:07;;;;;;;228.07;62.55;;;;;;;;;;4993575;28;20454;-44
2024/02/14 01:05:33;;;;;;;227.57;61.92;;;;;;;;;;4992927;28;20947;-44
2024/02/14 01:08:00;;;;;;;228.47;62.50;;;;;;;;;;4993268;28;20173;-44
2024/02/14 01:10:26;;;;;;;228.15;61.63;;;;;;;;;;4993076;28;20961;-44
2024/02/14 01:12:52;;;;;;;225.57;58.07;;;;;;;;;;4993336;28;20263;-45
2024/02/14 01:15:17;;;;;;;228.17;60.20;;;;;;;;;;4993473;28;20896;-45
2024/02/14 01:17:44;;;;;;;225.73;57.47;;;;;;;;;;4993462;28;20821;-45
2024/02/14 01:20:10;;;;;;;227.32;58.25;;;;;;;;;;4993059;28;20443;-45
2024/02/14 01:22:37;;;;;;;224.60;56.45;;;;;;;;;;4993152;28;20255;-45
2024/02/14 01:25:04;;;;;;;224.20;57.88;;;;;;;;;;4991659;28;20192;-45
2024/02/14 01:27:30;;;;;;;229.50;58.90;;;;;;;;;;4992757;28;20206;-45
2024/02/14 01:29:57;;;;;;;226.57;58.27;;;;;;;;;;4992948;28;20196;-45
2024/02/14 01:32:23;;;;;;;225.05;56.45;;;;;;;;;;4990449;28;20447;-44
2024/02/14 01:34:49;;;;;;;225.85;57.53;;;;;;;;;;4992500;28;20180;-44
2024/02/14 01:37:15;;;;;;;226.65;58.17;;;;;;;;;;4992178;28;20603;-45
2024/02/14 01:39:41;;;;;;;226.75;57.17;;;;;;;;;;4992549;28;20203;-45
2024/02/14 01:42:07;;;;;;;223.77;56.57;;;;;;;;;;4994488;28;20249;-44
2024/02/14 01:44:34;;;;;;;225.57;56.28;;;;;;;;;;4992032;28;20484;-44
2024/02/14 01:47:00;;;;;;;228.02;59.08;;;;;;;;;;4992351;28;20226;-44
2024/02/14 01:49:28;;;;;;;225.70;56.33;;;;;;;;;;4992212;28;20195;-43
2024/02/14 01:51:55;;;;;;;226.50;58.10;;;;;;;;;;4992336;28;20270;-44
2024/02/14 01:54:21;;;;;;;226.02;57.28;;;;;;;;;;4992269;28;20232;-44
2024/02/14 01:56:49;;;;;;;225.73;56.37;;;;;;;;;;4991842;28;20267;-44
2024/02/14 01:59:16;;;;;;;225.93;58.15;;;;;;;;;;4992208;28;20458;-44
2024/02/14 02:01:42;;;;;;;226.32;58.20;;;;;;;;;;4991623;28;20552;-44
2024/02/14 02:04:08;;;;;;;226.00;57.20;;;;;;;;;;4992019;28;20179;-45
2024/02/14 02:06:34;;;;;;;227.80;58.33;;;;;;;;;;4991287;28;20466;-44
2024/02/14 02:09:02;;;;;;;225.38;57.85;;;;;;;;;;4991801;28;20195;-45
2024/02/14 02:11:28;;;;;;;226.82;57.80;;;;;;;;;;4992518;28;20183;-45
2024/02/14 02:13:55;;;;;;;224.13;56.93;;;;;;;;;;4992142;28;20184;-44
2024/02/14 02:16:21;;;;;;;225.25;56.97;;;;;;;;;;4991690;28;20476;-44
2024/02/14 02:18:49;;;;;;;226.85;58.17;;;;;;;;;;4991847;28;20195;-45
2024/02/14 02:21:15;;;;;;;227.68;59.00;;;;;;;;;;4991980;28;20207;-45
2024/02/14 02:23:44;;;;;;;228.05;59.45;;;;;;;;;;4991995;28;20691;-45
2024/02/14 02:26:11;;;;;;;226.48;58.22;;;;;;;;;;4991887;28;20195;-44
2024/02/14 02:28:39;;;;;;;227.77;59.08;;;;;;;;;;4991590;28;20193;-44
2024/02/14 02:31:05;;;;;;;225.35;58.33;;;;;;;;;;4991932;28;20185;-44
2024/02/14 02:33:32;;;;;;;225.82;57.90;;;;;;;;;;4991770;28;20263;-44
2024/02/14 02:35:58;;;;;;;227.55;58.85;;;;;;;;;;4991692;28;20177;-44
2024/02/14 02:38:23;;;;;;;228.97;59.40;;;;;;;;;;4991544;28;20583;-44
2024/02/14 02:40:50;;;;;;;227.43;59.20;;;;;;;;;;4991745;28;20832;-44
2024/02/14 02:43:16;;;;;;;227.60;59.63;;;;;;;;;;4991453;28;20419;-44
2024/02/14 02:45:42;;;;;;;227.83;58.90;;;;;;;;;;4991416;28;20188;-44
2024/02/14 02:48:08;;;;;;;227.35;59.45;;;;;;;;;;4991637;28;20454;-44
2024/02/14 02:50:34;;;;;;;227.75;58.92;;;;;;;;;;4991728;28;20193;-44
2024/02/14 02:53:00;;;;;;;229.17;61.70;;;;;;;;;;4991695;28;20184;-44
2024/02/14 02:55:26;;;;;;;226.00;59.58;;;;;;;;;;4991189;28;20414;-44
2024/02/14 02:57:52;;;;;;;227.25;59.78;;;;;;;;;;4991862;28;20175;-44
2024/02/14 03:00:21;;;;;;;228.02;59.20;;;;;;;;;;4991320;28;20230;-44
2024/02/14 03:02:47;;;;;;;228.60;60.35;;;;;;;;;;4991352;28;20218;-44
2024/02/14 03:05:19;;;;;;;233.37;63.90;;;;;;;;;;4991164;28;20181;-44
2024/02/14 03:07:47;;;;;;;229.73;60.67;;;;;;;;;;4991347;28;20471;-44
2024/02/14 03:10:14;;;;;;;226.85;59.42;;;;;;;;;;4991372;28;20188;-46
2024/02/14 03:12:40;;;;;;;227.18;58.60;;;;;;;;;;4991619;28;20168;-44
2024/02/14 03:15:10;;;;;;;232.70;62.45;;;;;;;;;;4991582;28;20239;-44
2024/02/14 03:17:36;;;;;;;229.95;60.60;;;;;;;;;;4991520;28;20667;-44
2024/02/14 03:20:02;;;;;;;229.57;60.17;;;;;;;;;;4991157;28;20236;-44
2024/02/14 03:22:28;;;;;;;227.40;59.53;;;;;;;;;;4991185;28;20206;-44
2024/02/14 03:24:54;;;;;;;229.70;60.53;;;;;;;;;;4991243;28;20185;-44
2024/02/14 03:27:23;;;;;;;228.57;60.63;;;;;;;;;;4990865;28;20205;-44
2024/02/14 03:29:50;;;;;;;230.20;60.67;;;;;;;;;;4991007;28;20451;-44
2024/02/14 03:32:17;;;;;;;228.77;60.13;;;;;;;;;;4991167;28;20582;-44
2024/02/14 03:34:43;;;;;;;230.95;61.85;;;;;;;;;;4991261;28;20751;-44
2024/02/14 03:37:09;;;;;;;225.47;58.27;;;;;;;;;;4991134;28;20200;-44
2024/02/14 03:39:35;;;;;;;229.47;59.57;;;;;;;;;;4990865;28;20851;-44
2024/02/14 03:42:02;;;;;;;227.60;59.20;;;;;;;;;;4991301;28;20424;-44
2024/02/14 03:44:28;;;;;;;228.18;59.20;;;;;;;;;;4991050;28;20416;-44
2024/02/14 03:46:54;;;;;;;228.07;58.63;;;;;;;;;;4991734;28;20232;-44
2024/02/14 03:49:21;;;;;;;226.55;58.97;;;;;;;;;;4994721;28;20217;-44
2024/02/14 03:51:48;;;;;;;229.32;59.30;;;;;;;;;;4994743;28;20180;-44
2024/02/14 03:54:14;;;;;;;229.02;59.30;;;;;;;;;;4994566;28;20185;-44
2024/02/14 03:56:40;;;;;;;229.00;59.37;;;;;;;;;;4994468;28;20180;-44
2024/02/14 03:59:07;;;;;;;229.43;58.65;;;;;;;;;;4994721;28;20455;-44
2024/02/14 04:01:33;;;;;;;227.18;56.78;;;;;;;;;;4994580;28;20181;-44
2024/02/14 04:03:59;;;;;;;229.48;58.67;;;;;;;;;;4994655;28;20181;-44
2024/02/14 04:06:26;;;;;;;228.70;58.88;;;;;;;;;;4994313;28;20575;-44
2024/02/14 04:08:52;;;;;;;228.63;58.38;;;;;;;;;;4994238;28;20204;-44
2024/02/14 04:11:18;;;;;;;229.17;58.47;;;;;;;;;;4994469;28;20181;-44
2024/02/14 04:13:44;;;;;;;227.13;57.00;;;;;;;;;;4994124;28;20415;-44
2024/02/14 04:16:11;;;;;;;225.30;55.50;;;;;;;;;;4994118;28;20511;-44
2024/02/14 04:18:37;;;;;;;226.52;57.05;;;;;;;;;;4994163;28;20258;-44
2024/02/14 04:21:04;;;;;;;223.57;56.10;;;;;;;;;;4994552;28;20189;-44
2024/02/14 04:23:31;;;;;;;227.38;57.05;;;;;;;;;;4994270;28;20916;-44
2024/02/14 04:25:58;;;;;;;225.98;55.95;;;;;;;;;;4994105;28;20218;-44
2024/02/14 04:28:24;;;;;;;228.63;57.38;;;;;;;;;;4993669;28;20289;-44
2024/02/14 04:30:50;;;;;;;224.57;55.87;;;;;;;;;;4994095;28;20176;-44
2024/02/14 04:33:16;;;;;;;227.47;56.87;;;;;;;;;;4993951;28;20416;-44
2024/02/14 04:35:42;;;;;;;226.50;56.28;;;;;;;;;;4993702;28;20419;-44
2024/02/14 04:38:08;;;;;;;226.37;56.00;;;;;;;;;;4993827;28;20173;-44
2024/02/14 04:40:34;;;;;;;227.50;58.00;;;;;;;;;;4994123;28;20495;-44
2024/02/14 04:43:00;;;;;;;227.30;56.40;;;;;;;;;;4994297;28;20421;-44
2024/02/14 04:45:26;;;;;;;227.70;57.05;;;;;;;;;;4994083;28;20411;-44
2024/02/14 04:47:52;;;;;;;224.83;55.70;;;;;;;;;;4993681;28;20204;-44
2024/02/14 04:50:18;;;;;;;227.63;57.03;;;;;;;;;;4993545;28;20439;-44
2024/02/14 04:52:44;;;;;;;225.90;56.60;;;;;;;;;;4993943;28;20756;-44
2024/02/14 04:55:10;;;;;;;231.30;59.17;;;;;;;;;;4993526;28;20187;-44
2024/02/14 04:57:37;;;;;;;226.00;55.33;;;;;;;;;;4993391;28;20416;-44
2024/02/14 05:00:04;;;;;;;226.55;55.80;;;;;;;;;;4992077;28;21046;-44
2024/02/14 05:02:30;;;;;;;225.13;56.42;;;;;;;;;;4993259;28;20200;-44
2024/02/14 05:04:56;;;;;;;227.50;57.42;;;;;;;;;;4993073;28;20250;-44
2024/02/14 05:07:22;;;;;;;224.13;55.40;;;;;;;;;;4993316;28;20679;-44
2024/02/14 05:09:51;;;;;;;226.82;56.17;;;;;;;;;;4993453;28;20991;-44
2024/02/14 05:12:17;;;;;;;226.90;56.20;;;;;;;;;;4993303;28;20566;-44
2024/02/14 05:14:43;;;;;;;223.83;55.43;;;;;;;;;;4993308;28;20172;-44
2024/02/14 05:17:09;;;;;;;228.00;56.80;;;;;;;;;;4992875;28;20438;-44
2024/02/14 05:19:35;;;;;;;225.43;57.00;;;;;;;;;;4992900;28;20794;-44
2024/02/14 05:22:01;;;;;;;226.87;56.20;;;;;;;;;;4993157;28;20502;-44
2024/02/14 05:24:29;;;;;;;227.07;56.47;;;;;;;;;;4993571;28;20416;-44
2024/02/14 05:26:54;;;;;;;228.80;58.38;;;;;;;;;;4992719;28;20861;-44
2024/02/14 05:29:20;;;;;;;228.17;57.67;;;;;;;;;;4993101;28;20482;-44
2024/02/14 05:31:48;;;;;;;227.52;56.92;;;;;;;;;;4993176;28;20400;-44
2024/02/14 05:34:14;;;;;;;229.13;58.35;;;;;;;;;;4992743;28;20175;-44
2024/02/14 05:36:42;;;;;;;229.10;58.80;;;;;;;;;;4992798;28;20177;-44
2024/02/14 05:39:08;;;;;;;227.57;56.30;;;;;;;;;;4992773;28;20197;-44
2024/02/14 05:41:35;;;;;;;225.77;56.10;;;;;;;;;;4992875;28;20185;-44
2024/02/14 05:44:01;;;;;;;227.30;56.58;;;;;;;;;;4992741;28;20939;-45
2024/02/14 05:46:27;;;;;;;228.32;57.28;;;;;;;;;;4992368;28;20221;-44
2024/02/14 05:48:54;;;;;;;228.77;57.47;;;;;;;;;;4992554;28;20192;-44
2024/02/14 05:51:20;;;;;;;229.05;57.72;;;;;;;;;;4992573;28;20165;-44
2024/02/14 05:53:46;;;;;;;227.87;56.10;;;;;;;;;;4991551;28;20271;-44
2024/02/14 05:56:12;;;;;;;225.80;55.57;;;;;;;;;;4992406;28;20470;-44
2024/02/14 05:58:38;;;;;;;226.57;56.50;;;;;;;;;;4992352;28;20439;-44
2024/02/14 06:01:04;;;;;;;226.43;55.60;;;;;;;;;;4992515;28;20499;-44
2024/02/14 06:03:30;;;;;;;226.68;56.58;;;;;;;;;;4992222;28;20412;-44
2024/02/14 06:05:56;;;;;;;227.13;57.40;;;;;;;;;;4991913;28;20235;-44
2024/02/14 06:08:23;;;;;;;228.57;57.77;;;;;;;;;;4992133;28;20408;-44
2024/02/14 06:10:49;;;;;;;229.68;57.90;;;;;;;;;;4991927;28;20412;-44
2024/02/14 06:13:15;;;;;;;225.77;56.47;;;;;;;;;;4992245;28;20572;-44
2024/02/14 06:15:41;;;;;;;226.18;56.80;;;;;;;;;;4991897;28;20176;-44
2024/02/14 06:18:07;;;;;;;227.98;57.53;;;;;;;;;;4992300;28;20184;-44
2024/02/14 06:20:35;;;;;;;228.52;57.78;;;;;;;;;;4992116;28;20168;-44
2024/02/14 06:23:01;;;;;;;226.27;57.15;;;;;;;;;;4992247;28;20759;-45
2024/02/14 06:25:27;;;;;;;227.00;58.03;;;;;;;;;;4991652;28;20648;-44
2024/02/14 06:27:54;;;;;;;226.03;56.60;;;;;;;;;;4991880;28;20214;-44
2024/02/14 06:30:20;;;;;;;228.88;58.85;;;;;;;;;;4990798;28;20729;-44
2024/02/14 06:32:46;;;;;;;226.17;56.93;;;;;;;;;;4991377;28;20204;-44
2024/02/14 06:35:14;;;;;;;233.70;62.17;;;;;;;;;;4990890;28;20411;-44
2024/02/14 06:37:40;;;;;;;228.55;58.33;;;;;;;;;;4990850;28;20464;-44
2024/02/14 06:40:08;;;;;;;227.03;57.00;;;;;;;;;;4991256;28;20684;-44
2024/02/14 06:42:34;;;;;;;227.20;57.72;;;;;;;;;;4991208;28;20419;-44
2024/02/14 06:45:00;;;;;;;228.20;57.87;;;;;;;;;;4991356;28;20189;-44
2024/02/14 06:47:29;;;;;;;225.85;56.28;;;;;;;;;;4990987;28;20459;-44
2024/02/14 06:49:55;;;;;;;227.43;57.15;;;;;;;;;;4991607;28;20275;-44
2024/02/14 06:52:21;;;;;;;227.48;57.42;;;;;;;;;;4991551;28;20259;-45
2024/02/14 06:54:48;;;;;;;226.40;58.10;;;;;;;;;;4991319;28;20307;-45
2024/02/14 06:57:14;;;;;;;223.63;55.63;;;;;;;;;;4991268;28;20470;-45
2024/02/14 06:59:40;;;;;;;225.65;56.25;;;;;;;;;;4990846;28;20220;-45
2024/02/14 07:02:06;;;;;;;225.65;56.67;;;;;;;;;;4990400;28;20177;-45
2024/02/14 07:04:32;;;;;;;225.32;56.58;;;;;;;;;;4990616;28;20550;-45
2024/02/14 07:06:58;;;;;;;226.65;56.90;;;;;;;;;;4991237;28;20721;-45
2024/02/14 07:09:25;;;;;;;228.40;58.42;;;;;;;;;;4988915;28;20209;-45
2024/02/14 07:11:53;;;;;;;226.80;57.13;;;;;;;;;;4991149;28;20173;-44
2024/02/14 07:14:19;;;;;;;229.50;59.20;;;;;;;;;;4988855;28;20249;-44
2024/02/14 07:16:45;;;;;;;228.65;59.20;;;;;;;;;;4990861;28;20625;-45
2024/02/14 07:19:11;;;;;;;227.30;57.55;;;;;;;;;;4991497;28;20200;-44
2024/02/14 07:21:40;;;;;;;225.10;56.55;;;;;;;;;;4988372;28;20206;-45
2024/02/14 07:24:06;;;;;;;226.05;57.10;;;;;;;;;;4995357;28;20192;-45
2024/02/14 07:26:32;;;;;;;227.13;57.80;;;;;;;;;;4994568;28;20196;-44
2024/02/14 07:28:58;;;;;;;228.63;58.47;;;;;;;;;;4995121;28;20424;-44
2024/02/14 07:31:24;;;;;;;227.85;57.30;;;;;;;;;;4995165;28;20412;-45
2024/02/14 07:33:53;;;;;;;226.35;57.15;;;;;;;;;;4995004;28;20213;-44
2024/02/14 07:36:19;;;;;;;229.27;58.38;;;;;;;;;;4994653;28;20195;-44
2024/02/14 07:38:45;;;;;;;226.60;57.30;;;;;;;;;;4995162;28;20204;-44
2024/02/14 07:41:11;;;;;;;226.13;56.42;;;;;;;;;;4993582;28;20319;-45
2024/02/14 07:43:37;;;;;;;227.40;57.00;;;;;;;;;;4994872;28;20242;-44
2024/02/14 07:46:05;;;;;;;228.10;57.08;;;;;;;;;;4994572;28;20878;-45
2024/02/14 07:48:31;;;;;;;229.07;58.53;;;;;;;;;;4994525;28;20589;-44
2024/02/14 07:50:59;;;;;;;226.38;57.15;;;;;;;;;;4994810;28;20724;-45
2024/02/14 07:53:25;;;;;;;228.90;57.65;;;;;;;;;;4994727;28;20173;-44
2024/02/14 07:55:52;;;;;;;227.95;58.25;;;;;;;;;;4994246;28;20683;-45
2024/02/14 07:58:18;;;;;;;226.32;57.80;;;;;;;;;;4994596;28;20177;-45
2024/02/14 08:00:44;;;;;;;226.98;58.00;;;;;;;;;;4994647;28;20195;-45
2024/02/14 08:03:10;;;;;;;225.73;57.07;;;;;;;;;;4997328;28;20173;-44
2024/02/14 08:05:36;;;;;;;227.77;57.77;;;;;;;;;;4994429;28;20408;-44
2024/02/14 08:08:02;;;;;;;228.73;59.25;;;;;;;;;;4994785;28;20435;-44
2024/02/14 08:10:28;;;;;;;226.47;58.07;;;;;;;;;;4994689;28;20196;-45
2024/02/14 08:12:54;;;;;;;228.25;58.78;;;;;;;;;;4994913;28;20446;-45
2024/02/14 08:15:20;;;;;;;226.17;56.90;;;;;;;;;;4994853;28;20525;-45
2024/02/14 08:17:47;;;;;;;226.38;57.50;;;;;;;;;;4994888;28;20422;-45
2024/02/14 08:20:13;;;;;;;225.73;57.47;;;;;;;;;;4994798;28;20205;-45
2024/02/14 08:22:39;;;;;;;226.32;56.80;;;;;;;;;;4994947;28;20172;-45
2024/02/14 08:25:05;;;;;;;226.73;58.35;;;;;;;;;;4994176;28;20180;-45
2024/02/14 08:27:31;;;;;;;226.02;57.47;;;;;;;;;;4994388;28;20777;-45
2024/02/14 08:29:57;;;;;;;227.67;58.93;;;;;;;;;;4994717;28;20296;-45
2024/02/14 08:32:23;;;;;;;226.48;59.30;;;;;;;;;;4994267;28;20789;-44
2024/02/14 08:34:50;;;;;;;229.27;60.27;;;;;;;;;;4994344;28;20177;-45
2024/02/14 08:37:16;;;;;;;228.57;60.17;;;;;;;;;;4994051;28;20703;-44
2024/02/14 08:39:42;;;;;;;229.23;61.08;;;;;;;;;;4994231;28;20204;-44
2024/02/14 08:42:08;;;;;;;229.07;59.57;;;;;;;;;;4994256;28;20533;-45
2024/02/14 08:44:34;;;;;;;230.50;62.22;;;;;;;;;;4993958;28;20455;-44
2024/02/14 08:47:00;;;;;;;229.18;60.10;;;;;;;;;;4993635;28;20200;-44
2024/02/14 08:49:26;;;;;;;229.93;62.10;;;;;;;;;;4993804;28;20203;-45
2024/02/14 08:51:52;;;;;;;232.07;65.60;;;;;;;;;;4993904;28;20405;-45
2024/02/14 08:54:18;;;;;;;232.20;64.30;;;;;;;;;;4993610;28;20408;-44
2024/02/14 08:56:44;;;;;;;234.55;66.28;;;;;;;;;;4993455;28;20412;-45
2024/02/14 08:59:11;;;;;;;231.00;63.22;;;;;;;;;;4994228;28;20232;-45
2024/02/14 09:01:37;;;;;;;229.73;61.70;;;;;;;;;;4992827;28;20181;-45
2024/02/14 09:04:03;;;;;;;228.85;60.60;;;;;;;;;;4990557;28;20534;-45
2024/02/14 09:06:29;;;;;;;232.17;61.73;;;;;;;;;;4990300;28;20608;-45
2024/02/14 09:08:55;;;;;;;228.80;59.77;;;;;;;;;;4993241;28;20428;-45
2024/02/14 09:11:22;;;;;;;231.77;62.07;;;;;;;;;;4993194;28;20977;-45
2024/02/14 09:13:50;;;;;;;230.93;60.92;;;;;;;;;;4993179;28;20408;-45
2024/02/14 09:16:16;;;;;;;234.20;62.53;;;;;;;;;;4990955;28;20380;-45
2024/02/14 09:18:42;;;;;;;237.53;65.70;;;;;;;;;;4990214;28;20194;-45
2024/02/14 09:21:08;;;;;;;232.90;63.20;;;;;;;;;;4991341;28;21150;-45
2024/02/14 09:23:35;;;;;;;231.90;62.67;;;;;;;;;;4993065;28;20177;-45
2024/02/14 09:26:01;;;;;;;231.90;61.90;;;;;;;;;;4991946;28;20582;-45
2024/02/14 09:28:27;;;;;;;232.27;61.50;;;;;;;;;;4992637;28;20256;-45
2024/02/14 09:30:54;;;;;;;229.25;58.97;;;;;;;;;;4993014;28;20169;-44
2024/02/14 09:33:20;;;;;;;233.30;63.20;;;;;;;;;;4992746;28;20264;-45
2024/02/14 09:35:47;;;;;;;229.50;60.40;;;;;;;;;;4992946;28;20320;-45
2024/02/14 09:38:14;;;;;;;232.07;61.90;;;;;;;;;;4992612;28;20826;-45
2024/02/14 09:40:42;;;;;;;233.98;64.22;;;;;;;;;;4992786;28;20208;-45
2024/02/14 09:43:24;;;;;;;231.20;61.88;;;;;;;;;;4992711;28;20165;-45
2024/02/14 09:45:52;;;;;;;229.80;60.38;;;;;;;;;;4985412;28;20177;-44
2024/02/14 09:48:19;;;;;;;232.15;60.95;;;;;;;;;;4992724;28;20736;-45
2024/02/14 09:50:47;;;;;;;232.65;62.70;;;;;;;;;;4990217;28;20200;-45
2024/02/14 09:53:15;;;;;;;230.57;60.53;;;;;;;;;;4992326;28;20169;-45
2024/02/14 09:55:42;;;;;;;227.40;57.53;;;;;;;;;;4990876;28;20256;-45
2024/02/14 09:58:08;;;;;;;230.18;60.10;;;;;;;;;;4992341;28;20545;-45
2024/02/14 10:00:35;;;;;;;230.43;61.67;;;;;;;;;;4992020;28;20215;-45
2024/02/14 10:03:01;;;;;;;230.00;59.70;;;;;;;;;;4992304;28;20177;-45
2024/02/14 10:05:27;;;;;;;233.10;61.10;;;;;;;;;;4991834;28;20177;-45
2024/02/14 10:07:56;;;;;;;232.37;62.00;;;;;;;;;;4990600;28;20463;-45
2024/02/14 10:10:22;;;;;;;231.65;61.20;;;;;;;;;;4990729;28;20436;-46
2024/02/14 10:12:48;;;;;;;228.70;59.60;;;;;;;;;;4991873;28;20611;-45
2024/02/14 10:15:14;;;;;;;238.80;66.23;;;;;;;;;;4990327;28;20411;-45
2024/02/14 10:17:40;;;;;;;228.37;59.07;;;;;;;;;;4991708;28;20412;-45
2024/02/14 10:20:07;;;;;;;231.05;59.78;;;;;;;;;;4991866;28;20720;-45
2024/02/14 10:22:36;;;;;;;228.05;58.28;;;;;;;;;;4991944;28;20189;-45
2024/02/14 10:25:08;;;;;;;229.60;60.63;;;;;;;;;;4991784;28;20227;-46
2024/02/14 10:27:40;;;;;;;229.07;60.00;;;;;;;;;;4991688;28;20207;-45
2024/02/14 10:30:10;;;;;;;228.07;57.97;;;;;;;;;;4992201;28;20574;-45
2024/02/14 10:32:37;;;;;;;228.13;58.45;;;;;;;;;;4992069;28;20223;-45
2024/02/14 10:35:08;;;;;;;229.88;59.70;;;;;;;;;;4991853;28;20642;-45
2024/02/14 10:37:36;;;;;;;227.43;57.15;;;;;;;;;;4991700;28;20180;-45
2024/02/14 10:40:03;;;;;;;230.02;60.03;;;;;;;;;;4991548;28;20200;-45
2024/02/14 10:42:29;;;;;;;232.30;61.60;;;;;;;;;;4991708;28;20173;-45
2024/02/14 10:44:55;;;;;;;228.60;58.40;;;;;;;;;;4991645;28;20434;-46
2024/02/14 10:47:24;;;;;;;230.10;59.45;;;;;;;;;;4991390;28;20467;-45
2024/02/14 10:49:51;;;;;;;231.27;60.05;;;;;;;;;;4991580;28;20192;-45
2024/02/14 10:52:18;;;;;;;232.57;61.63;;;;;;;;;;4991549;28;20703;-45
2024/02/14 10:54:46;;;;;;;232.77;61.65;;;;;;;;;;4991894;28;20223;-46
2024/02/14 10:57:12;;;;;;;231.98;61.95;;;;;;;;;;4990447;28;20195;-45
2024/02/14 10:59:40;;;;;;;230.18;60.38;;;;;;;;;;4991422;28;20247;-46
2024/02/14 11:02:06;;;;;;;229.50;61.35;;;;;;;;;;4991543;28;20707;-45
2024/02/14 11:04:32;;;;;;;227.98;58.42;;;;;;;;;;4991489;28;20227;-45
2024/02/14 11:07:02;;;;;;;228.10;60.35;;;;;;;;;;4991046;28;20192;-46
2024/02/14 11:09:36;;;;;;;230.10;60.17;;;;;;;;;;4991206;28;20193;-46
2024/02/14 11:12:03;;;;;;;229.98;61.30;;;;;;;;;;4991395;28;20195;-46
2024/02/14 11:14:42;;;;;;;229.95;59.67;;;;;;;;;;4991299;28;20233;-45
2024/02/14 11:17:10;;;;;;;231.75;64.13;;;;;;;;;;4991775;28;20180;-46
2024/02/14 11:19:37;;;;;;;229.68;61.85;;;;;;;;;;4991088;28;20192;-46
2024/02/14 11:22:15;;;;;;;230.52;61.70;;;;;;;;;;4991300;28;20177;-46
2024/02/14 11:24:41;;;;;;;233.05;62.13;;;;;;;;;;4991227;28;20177;-46
2024/02/14 11:27:13;;;;;;;231.00;61.90;;;;;;;;;;4990894;28;20247;-46
2024/02/14 11:29:52;;;;;;;230.73;61.95;;;;;;;;;;4991208;28;20630;-46
2024/02/14 11:32:18;;;;;;;232.98;63.60;;;;;;;;;;4991795;28;20553;-46
2024/02/14 11:34:44;;;;;;;231.68;62.85;;;;;;;;;;4991188;28;20176;-46
2024/02/14 11:37:10;;;;;;;230.82;63.33;;;;;;;;;;4991317;28;20204;-46
2024/02/14 11:39:37;;;;;;;231.70;63.30;;;;;;;;;;4991179;28;20196;-46
2024/02/14 11:42:04;;;;;;;230.50;62.60;;;;;;;;;;4991220;28;20824;-46
2024/02/14 11:44:30;;;;;;;233.13;64.35;;;;;;;;;;4990972;28;20184;-46
2024/02/14 11:46:56;;;;;;;231.57;63.37;;;;;;;;;;4990075;28;20474;-46
2024/02/14 11:49:22;;;;;;;235.98;66.00;;;;;;;;;;4979365;28;20578;-45
2024/02/14 11:51:48;;;;;;;233.27;65.00;;;;;;;;;;4990290;28;20209;-46
2024/02/14 11:54:15;;;;;;;229.23;61.07;;;;;;;;;;4990693;28;20659;-46
2024/02/14 11:56:41;;;;;;;232.30;62.90;;;;;;;;;;4990633;28;20440;-45
2024/02/14 11:59:09;;;;;;;235.30;65.07;;;;;;;;;;4990198;28;20213;-46
2024/02/14 12:01:36;;;;;;;231.65;61.67;;;;;;;;;;4990673;28;20173;-45
2024/02/14 12:04:03;;;;;;;231.15;62.00;;;;;;;;;;4991005;28;20180;-45
2024/02/14 12:06:36;;;;;;;231.55;61.85;;;;;;;;;;4990365;28;20197;-46
2024/02/14 12:09:05;;;;;;;230.80;61.22;;;;;;;;;;4993338;28;20283;-45
2024/02/14 12:11:34;;;;;;;234.10;62.85;;;;;;;;;;4994257;28;20169;-46
2024/02/14 12:14:03;;;;;;;229.50;60.30;;;;;;;;;;4994448;28;20181;-45
2024/02/14 12:16:31;;;;;;;233.40;63.75;;;;;;;;;;4993918;28;20177;-45
2024/02/14 12:19:06;;;;;;;234.18;64.45;;;;;;;;;;4994276;28;20219;-45
2024/02/14 12:21:43;;;;;;;232.60;62.70;;;;;;;;;;4993503;28;20602;-45
2024/02/14 12:24:09;;;;;;;233.20;62.72;;;;;;;;;;4994104;28;20184;-46
2024/02/14 12:26:36;;;;;;;232.57;62.45;;;;;;;;;;4993993;28;20205;-45
2024/02/14 12:29:06;;;;;;;231.82;62.20;;;;;;;;;;4993983;28;20226;-46
2024/02/14 12:31:34;;;;;;;235.93;64.88;;;;;;;;;;4994055;28;20231;-45
2024/02/14 12:34:04;;;;;;;232.60;64.43;;;;;;;;;;4993994;28;20177;-45
2024/02/14 12:36:31;;;;;;;235.50;66.47;;;;;;;;;;4993495;28;20203;-46
2024/02/14 12:38:57;;;;;;;237.13;67.18;;;;;;;;;;4993525;28;20685;-46
2024/02/14 12:41:27;;;;;;;234.52;63.85;;;;;;;;;;4993836;28;20235;-46
2024/02/14 12:43:53;;;;;;;234.77;64.43;;;;;;;;;;4993293;28;20176;-46
2024/02/14 12:46:19;;;;;;;237.32;67.70;;;;;;;;;;4993396;28;20715;-45
2024/02/14 12:48:45;;;;;;;235.02;66.35;;;;;;;;;;4993937;28;20567;-45
2024/02/14 12:51:12;;;;;;;233.43;61.47;;;;;;;;;;4993546;28;20193;-45
2024/02/14 12:53:39;;;;;;;234.55;63.33;;;;;;;;;;4993268;28;20165;-45
2024/02/14 12:56:05;;;;;;;237.07;64.10;;;;;;;;;;4992869;28;20213;-46
2024/02/14 12:58:32;;;;;;;238.48;66.18;;;;;;;;;;4992699;28;20197;-45
2024/02/14 13:00:59;;;;;;;237.77;65.32;;;;;;;;;;4992565;28;20189;-45
2024/02/14 13:03:26;;;;;;;235.45;63.63;;;;;;;;;;4993557;28;20243;-45
2024/02/14 13:05:53;;;;;;;234.73;62.65;;;;;;;;;;4992999;28;20213;-45
2024/02/14 13:08:21;;;;;;;237.70;65.47;;;;;;;;;;4993446;28;20256;-45
2024/02/14 13:10:47;;;;;;;236.10;64.07;;;;;;;;;;4993623;28;20218;-46
2024/02/14 13:13:14;;;;;;;233.25;60.88;;;;;;;;;;4993413;28;20169;-46
2024/02/14 13:15:40;;;;;;;233.93;62.67;;;;;;;;;;4993120;28;20174;-45
2024/02/14 13:18:06;;;;;;;234.15;62.58;;;;;;;;;;4993231;28;20181;-45
2024/02/14 13:20:33;;;;;;;234.88;63.90;;;;;;;;;;4992023;28;20203;-45
2024/02/14 13:22:59;;;;;;;235.07;64.43;;;;;;;;;;4993211;28;20189;-45
2024/02/14 13:25:26;;;;;;;234.60;62.83;;;;;;;;;;4992850;28;20187;-45
2024/02/14 13:27:52;;;;;;;236.70;65.78;;;;;;;;;;4992982;28;20201;-45
2024/02/14 13:30:18;;;;;;;234.05;62.50;;;;;;;;;;4993128;28;20194;-45
2024/02/14 13:32:44;;;;;;;234.95;64.53;;;;;;;;;;4993228;28;20530;-45
2024/02/14 13:35:13;;;;;;;237.20;67.07;;;;;;;;;;4992812;28;20227;-45
2024/02/14 13:37:39;;;;;;;231.68;61.90;;;;;;;;;;4992901;28;20468;-45
2024/02/14 13:40:09;;;;;;;239.97;68.00;;;;;;;;;;4992909;28;20608;-45
2024/02/14 13:42:35;;;;;;;235.13;64.05;;;;;;;;;;4992797;28;20873;-45
2024/02/14 13:45:01;;;;;;;240.63;69.13;;;;;;;;;;4991355;28;20229;-45
2024/02/14 13:47:27;;;;;;;233.07;63.10;;;;;;;;;;4992313;28;20460;-45
2024/02/14 13:49:53;;;;;;;235.83;65.57;;;;;;;;;;4992621;28;20483;-45
2024/02/14 13:52:20;;;;;;;232.03;61.73;;;;;;;;;;4992695;28;20463;-45
2024/02/14 13:54:47;;;;;;;233.93;64.93;;;;;;;;;;4992833;28;20765;-45
2024/02/14 13:57:13;;;;;;;232.52;64.13;;;;;;;;;;4992383;28;20184;-46
2024/02/14 13:59:39;;;;;;;230.63;60.43;;;;;;;;;;4992422;28;20215;-45
2024/02/14 14:02:05;;;;;;;234.03;65.10;;;;;;;;;;4992367;28;20425;-45